sensor_id;sensor_type;location;lat;lon;timestamp;P1;durP1;ratioP1;P2;durP2;ratioP2
77520;SDS011;66633;47.628;19.158;2023-06-24T00:00:45;9.85;;;6.53;;
77520;SDS011;66633;47.628;19.158;2023-06-24T00:03:10;8.75;;;6.07;;
77520;SDS011;66633;47.628;19.158;2023-06-24T00:05:37;8.63;;;5.53;;
77520;SDS011;66633;47.628;19.158;2023-06-24T00:20:49;7.63;;;5.57;;
77520;SDS011;66633;47.628;19.158;2023-06-24T00:41:03;8.38;;;5.18;;
77520;SDS011;66633;47.628;19.158;2023-06-24T00:51:10;7.25;;;3.83;;
77520;SDS011;66633;47.628;19.158;2023-06-24T00:53:36;7.35;;;4.43;;
77520;SDS011;66633;47.628;19.158;2023-06-24T01:01:34;6.63;;;3.88;;
77520;SDS011;66633;47.628;19.158;2023-06-24T01:09:10;6.10;;;3.60;;
77520;SDS011;66633;47.628;19.158;2023-06-24T01:52:04;5.60;;;3.20;;
77520;SDS011;66633;47.628;19.158;2023-06-24T02:07:15;7.40;;;4.22;;
77520;SDS011;66633;47.628;19.158;2023-06-24T02:14:44;8.25;;;4.25;;
77520;SDS011;66633;47.628;19.158;2023-06-24T02:17:10;6.35;;;3.78;;
77520;SDS011;66633;47.628;19.158;2023-06-24T02:19:36;5.65;;;3.35;;
77520;SDS011;66633;47.628;19.158;2023-06-24T02:27:07;7.13;;;3.67;;
77520;SDS011;66633;47.628;19.158;2023-06-24T02:34:31;5.78;;;3.30;;
77520;SDS011;66633;47.628;19.158;2023-06-24T02:36:56;8.25;;;3.38;;
77520;SDS011;66633;47.628;19.158;2023-06-24T02:39:21;6.68;;;3.38;;
77520;SDS011;66633;47.628;19.158;2023-06-24T02:41:48;7.00;;;3.30;;
77520;SDS011;66633;47.628;19.158;2023-06-24T02:44:14;6.55;;;3.47;;
77520;SDS011;66633;47.628;19.158;2023-06-24T02:46:40;6.55;;;3.30;;
77520;SDS011;66633;47.628;19.158;2023-06-24T02:49:07;6.38;;;2.97;;
77520;SDS011;66633;47.628;19.158;2023-06-24T02:51:33;7.55;;;3.35;;
77520;SDS011;66633;47.628;19.158;2023-06-24T02:53:59;6.72;;;2.83;;
77520;SDS011;66633;47.628;19.158;2023-06-24T02:56:26;6.03;;;2.92;;
77520;SDS011;66633;47.628;19.158;2023-06-24T02:58:53;6.20;;;2.90;;
77520;SDS011;66633;47.628;19.158;2023-06-24T03:01:18;6.22;;;3.45;;
77520;SDS011;66633;47.628;19.158;2023-06-24T03:03:53;7.07;;;3.05;;
77520;SDS011;66633;47.628;19.158;2023-06-24T03:06:18;6.30;;;2.78;;
77520;SDS011;66633;47.628;19.158;2023-06-24T03:08:44;8.38;;;2.90;;
77520;SDS011;66633;47.628;19.158;2023-06-24T03:11:12;5.18;;;2.75;;
77520;SDS011;66633;47.628;19.158;2023-06-24T03:13:37;6.03;;;2.83;;
77520;SDS011;66633;47.628;19.158;2023-06-24T03:16:02;6.60;;;2.80;;
77520;SDS011;66633;47.628;19.158;2023-06-24T03:18:28;6.38;;;2.20;;
77520;SDS011;66633;47.628;19.158;2023-06-24T03:20:53;5.73;;;2.30;;
77520;SDS011;66633;47.628;19.158;2023-06-24T03:23:18;6.70;;;2.33;;
77520;SDS011;66633;47.628;19.158;2023-06-24T03:25:43;5.40;;;2.80;;
77520;SDS011;66633;47.628;19.158;2023-06-24T03:28:09;5.57;;;2.72;;
77520;SDS011;66633;47.628;19.158;2023-06-24T03:30:34;6.37;;;2.30;;
77520;SDS011;66633;47.628;19.158;2023-06-24T03:32:59;5.70;;;2.30;;
77520;SDS011;66633;47.628;19.158;2023-06-24T03:35:25;5.07;;;2.37;;
77520;SDS011;66633;47.628;19.158;2023-06-24T03:37:50;4.77;;;2.30;;
77520;SDS011;66633;47.628;19.158;2023-06-24T03:40:15;5.20;;;2.30;;
77520;SDS011;66633;47.628;19.158;2023-06-24T03:42:41;4.68;;;2.17;;
77520;SDS011;66633;47.628;19.158;2023-06-24T03:45:06;3.77;;;1.90;;
77520;SDS011;66633;47.628;19.158;2023-06-24T03:47:31;4.28;;;2.20;;
77520;SDS011;66633;47.628;19.158;2023-06-24T03:49:57;5.32;;;2.33;;
77520;SDS011;66633;47.628;19.158;2023-06-24T03:52:22;7.00;;;2.40;;
77520;SDS011;66633;47.628;19.158;2023-06-24T03:54:47;5.00;;;2.30;;
77520;SDS011;66633;47.628;19.158;2023-06-24T03:57:12;6.43;;;2.20;;
77520;SDS011;66633;47.628;19.158;2023-06-24T03:59:38;5.05;;;2.00;;
77520;SDS011;66633;47.628;19.158;2023-06-24T04:02:04;4.20;;;1.80;;
77520;SDS011;66633;47.628;19.158;2023-06-24T04:04:36;4.05;;;2.00;;
77520;SDS011;66633;47.628;19.158;2023-06-24T04:07:01;4.82;;;1.90;;
77520;SDS011;66633;47.628;19.158;2023-06-24T04:09:28;5.20;;;1.70;;
77520;SDS011;66633;47.628;19.158;2023-06-24T04:11:54;5.20;;;1.70;;
77520;SDS011;66633;47.628;19.158;2023-06-24T04:14:19;4.10;;;1.80;;
77520;SDS011;66633;47.628;19.158;2023-06-24T04:16:44;4.32;;;1.90;;
77520;SDS011;66633;47.628;19.158;2023-06-24T04:19:09;4.47;;;1.93;;
77520;SDS011;66633;47.628;19.158;2023-06-24T04:21:36;4.68;;;1.70;;
77520;SDS011;66633;47.628;19.158;2023-06-24T04:24:02;3.90;;;1.75;;
77520;SDS011;66633;47.628;19.158;2023-06-24T04:26:27;3.55;;;1.63;;
77520;SDS011;66633;47.628;19.158;2023-06-24T04:28:53;5.17;;;1.83;;
77520;SDS011;66633;47.628;19.158;2023-06-24T04:31:18;5.13;;;2.00;;
77520;SDS011;66633;47.628;19.158;2023-06-24T04:33:43;5.37;;;1.93;;
77520;SDS011;66633;47.628;19.158;2023-06-24T04:36:09;5.90;;;2.10;;
77520;SDS011;66633;47.628;19.158;2023-06-24T04:38:34;3.90;;;1.80;;
77520;SDS011;66633;47.628;19.158;2023-06-24T04:41:00;5.68;;;2.17;;
77520;SDS011;66633;47.628;19.158;2023-06-24T04:43:25;4.22;;;1.80;;
77520;SDS011;66633;47.628;19.158;2023-06-24T04:45:53;4.53;;;2.05;;
77520;SDS011;66633;47.628;19.158;2023-06-24T04:48:19;4.82;;;2.00;;
77520;SDS011;66633;47.628;19.158;2023-06-24T04:50:45;5.67;;;1.87;;
77520;SDS011;66633;47.628;19.158;2023-06-24T04:53:10;4.15;;;1.73;;
77520;SDS011;66633;47.628;19.158;2023-06-24T04:55:35;4.30;;;2.10;;
77520;SDS011;66633;47.628;19.158;2023-06-24T04:58:00;4.93;;;1.80;;
77520;SDS011;66633;47.628;19.158;2023-06-24T05:00:26;4.87;;;1.90;;
77520;SDS011;66633;47.628;19.158;2023-06-24T05:02:51;4.30;;;1.85;;
77520;SDS011;66633;47.628;19.158;2023-06-24T05:05:17;5.13;;;1.70;;
77520;SDS011;66633;47.628;19.158;2023-06-24T05:07:42;4.20;;;1.70;;
77520;SDS011;66633;47.628;19.158;2023-06-24T05:10:07;4.53;;;1.73;;
77520;SDS011;66633;47.628;19.158;2023-06-24T05:12:33;3.40;;;1.60;;
77520;SDS011;66633;47.628;19.158;2023-06-24T05:14:58;4.33;;;1.57;;
77520;SDS011;66633;47.628;19.158;2023-06-24T05:17:23;5.35;;;2.47;;
77520;SDS011;66633;47.628;19.158;2023-06-24T05:19:48;3.77;;;1.60;;
77520;SDS011;66633;47.628;19.158;2023-06-24T05:22:14;4.47;;;1.75;;
77520;SDS011;66633;47.628;19.158;2023-06-24T05:24:39;4.70;;;1.83;;
77520;SDS011;66633;47.628;19.158;2023-06-24T05:27:06;3.97;;;1.80;;
77520;SDS011;66633;47.628;19.158;2023-06-24T05:29:32;4.28;;;1.58;;
77520;SDS011;66633;47.628;19.158;2023-06-24T05:31:57;4.65;;;1.90;;
77520;SDS011;66633;47.628;19.158;2023-06-24T05:34:23;3.95;;;1.42;;
77520;SDS011;66633;47.628;19.158;2023-06-24T05:36:48;4.35;;;1.65;;
77520;SDS011;66633;47.628;19.158;2023-06-24T05:39:14;3.93;;;1.80;;
77520;SDS011;66633;47.628;19.158;2023-06-24T05:41:39;7.22;;;2.30;;
77520;SDS011;66633;47.628;19.158;2023-06-24T05:44:06;5.32;;;1.63;;
77520;SDS011;66633;47.628;19.158;2023-06-24T05:46:31;4.30;;;1.70;;
77520;SDS011;66633;47.628;19.158;2023-06-24T05:48:56;5.67;;;1.97;;
77520;SDS011;66633;47.628;19.158;2023-06-24T05:51:22;5.80;;;2.10;;
77520;SDS011;66633;47.628;19.158;2023-06-24T05:53:47;4.43;;;2.00;;
77520;SDS011;66633;47.628;19.158;2023-06-24T05:56:12;5.28;;;1.77;;
77520;SDS011;66633;47.628;19.158;2023-06-24T05:58:37;4.17;;;1.80;;
77520;SDS011;66633;47.628;19.158;2023-06-24T06:01:03;4.10;;;2.00;;
77520;SDS011;66633;47.628;19.158;2023-06-24T06:03:28;4.57;;;1.63;;
77520;SDS011;66633;47.628;19.158;2023-06-24T06:05:53;5.93;;;1.90;;
77520;SDS011;66633;47.628;19.158;2023-06-24T06:08:18;5.33;;;1.90;;
77520;SDS011;66633;47.628;19.158;2023-06-24T06:10:44;6.13;;;1.90;;
77520;SDS011;66633;47.628;19.158;2023-06-24T06:13:09;5.57;;;1.85;;
77520;SDS011;66633;47.628;19.158;2023-06-24T06:15:34;4.50;;;2.10;;
77520;SDS011;66633;47.628;19.158;2023-06-24T06:18:00;4.22;;;1.90;;
77520;SDS011;66633;47.628;19.158;2023-06-24T06:20:25;5.03;;;1.87;;
77520;SDS011;66633;47.628;19.158;2023-06-24T06:22:50;5.38;;;1.92;;
77520;SDS011;66633;47.628;19.158;2023-06-24T06:25:16;5.00;;;2.13;;
77520;SDS011;66633;47.628;19.158;2023-06-24T06:27:41;4.93;;;2.08;;
77520;SDS011;66633;47.628;19.158;2023-06-24T06:30:06;4.63;;;2.10;;
77520;SDS011;66633;47.628;19.158;2023-06-24T06:32:32;4.63;;;2.00;;
77520;SDS011;66633;47.628;19.158;2023-06-24T06:34:57;5.97;;;2.00;;
77520;SDS011;66633;47.628;19.158;2023-06-24T06:37:22;5.53;;;1.90;;
77520;SDS011;66633;47.628;19.158;2023-06-24T06:39:48;5.20;;;1.90;;
77520;SDS011;66633;47.628;19.158;2023-06-24T06:42:13;8.10;;;2.10;;
77520;SDS011;66633;47.628;19.158;2023-06-24T06:44:39;3.95;;;1.75;;
77520;SDS011;66633;47.628;19.158;2023-06-24T06:47:04;3.78;;;1.60;;
77520;SDS011;66633;47.628;19.158;2023-06-24T06:49:30;3.92;;;2.00;;
77520;SDS011;66633;47.628;19.158;2023-06-24T06:51:55;3.80;;;1.67;;
77520;SDS011;66633;47.628;19.158;2023-06-24T06:54:20;4.55;;;2.08;;
77520;SDS011;66633;47.628;19.158;2023-06-24T06:56:46;4.57;;;1.80;;
77520;SDS011;66633;47.628;19.158;2023-06-24T06:59:11;7.03;;;2.10;;
77520;SDS011;66633;47.628;19.158;2023-06-24T07:01:36;4.70;;;2.40;;
77520;SDS011;66633;47.628;19.158;2023-06-24T07:04:01;3.97;;;2.13;;
77520;SDS011;66633;47.628;19.158;2023-06-24T07:06:27;3.53;;;1.60;;
77520;SDS011;66633;47.628;19.158;2023-06-24T07:08:52;4.78;;;2.25;;
77520;SDS011;66633;47.628;19.158;2023-06-24T07:11:18;4.55;;;1.95;;
77520;SDS011;66633;47.628;19.158;2023-06-24T07:13:43;4.50;;;1.97;;
77520;SDS011;66633;47.628;19.158;2023-06-24T07:16:09;4.32;;;2.25;;
77520;SDS011;66633;47.628;19.158;2023-06-24T07:18:35;3.80;;;1.80;;
77520;SDS011;66633;47.628;19.158;2023-06-24T07:21:00;4.23;;;1.97;;
77520;SDS011;66633;47.628;19.158;2023-06-24T07:23:26;6.55;;;2.10;;
77520;SDS011;66633;47.628;19.158;2023-06-24T07:25:51;5.22;;;2.30;;
77520;SDS011;66633;47.628;19.158;2023-06-24T07:28:17;5.70;;;2.45;;
77520;SDS011;66633;47.628;19.158;2023-06-24T07:30:42;5.20;;;2.37;;
77520;SDS011;66633;47.628;19.158;2023-06-24T07:33:07;5.22;;;2.30;;
77520;SDS011;66633;47.628;19.158;2023-06-24T07:35:33;6.20;;;2.78;;
77520;SDS011;66633;47.628;19.158;2023-06-24T07:37:58;5.25;;;2.78;;
77520;SDS011;66633;47.628;19.158;2023-06-24T07:40:23;8.52;;;2.78;;
77520;SDS011;66633;47.628;19.158;2023-06-24T07:42:49;6.80;;;2.70;;
77520;SDS011;66633;47.628;19.158;2023-06-24T07:45:14;5.03;;;2.50;;
77520;SDS011;66633;47.628;19.158;2023-06-24T07:47:39;6.53;;;3.20;;
77520;SDS011;66633;47.628;19.158;2023-06-24T07:50:04;4.85;;;2.80;;
77520;SDS011;66633;47.628;19.158;2023-06-24T07:52:31;5.30;;;2.60;;
77520;SDS011;66633;47.628;19.158;2023-06-24T07:54:56;6.10;;;2.70;;
77520;SDS011;66633;47.628;19.158;2023-06-24T07:57:21;5.47;;;2.60;;
77520;SDS011;66633;47.628;19.158;2023-06-24T07:59:47;4.75;;;2.40;;
77520;SDS011;66633;47.628;19.158;2023-06-24T08:02:12;6.47;;;3.00;;
77520;SDS011;66633;47.628;19.158;2023-06-24T08:04:37;4.60;;;2.50;;
77520;SDS011;66633;47.628;19.158;2023-06-24T08:07:03;5.50;;;2.97;;
77520;SDS011;66633;47.628;19.158;2023-06-24T08:09:29;5.10;;;2.50;;
77520;SDS011;66633;47.628;19.158;2023-06-24T08:11:54;4.25;;;2.05;;
77520;SDS011;66633;47.628;19.158;2023-06-24T08:14:20;6.07;;;2.60;;
77520;SDS011;66633;47.628;19.158;2023-06-24T08:16:45;5.03;;;2.43;;
77520;SDS011;66633;47.628;19.158;2023-06-24T08:19:10;5.90;;;2.88;;
77520;SDS011;66633;47.628;19.158;2023-06-24T08:21:35;4.47;;;2.40;;
77520;SDS011;66633;47.628;19.158;2023-06-24T08:24:02;5.50;;;2.17;;
77520;SDS011;66633;47.628;19.158;2023-06-24T08:26:28;6.25;;;2.35;;
77520;SDS011;66633;47.628;19.158;2023-06-24T08:28:53;4.30;;;2.20;;
77520;SDS011;66633;47.628;19.158;2023-06-24T08:31:18;4.57;;;2.43;;
77520;SDS011;66633;47.628;19.158;2023-06-24T08:33:44;4.70;;;2.20;;
77520;SDS011;66633;47.628;19.158;2023-06-24T08:36:12;4.10;;;2.20;;
77520;SDS011;66633;47.628;19.158;2023-06-24T08:38:37;5.72;;;2.45;;
77520;SDS011;66633;47.628;19.158;2023-06-24T08:41:02;4.23;;;2.10;;
77520;SDS011;66633;47.628;19.158;2023-06-24T08:43:28;5.20;;;2.50;;
77520;SDS011;66633;47.628;19.158;2023-06-24T08:45:53;5.13;;;2.08;;
77520;SDS011;66633;47.628;19.158;2023-06-24T08:48:18;4.77;;;2.20;;
77520;SDS011;66633;47.628;19.158;2023-06-24T08:50:46;4.30;;;2.00;;
77520;SDS011;66633;47.628;19.158;2023-06-24T08:53:14;6.03;;;2.55;;
77520;SDS011;66633;47.628;19.158;2023-06-24T08:55:40;4.72;;;2.70;;
77520;SDS011;66633;47.628;19.158;2023-06-24T08:58:06;4.82;;;2.45;;
77520;SDS011;66633;47.628;19.158;2023-06-24T09:00:31;4.68;;;1.95;;
77520;SDS011;66633;47.628;19.158;2023-06-24T09:02:57;6.43;;;2.40;;
77520;SDS011;66633;47.628;19.158;2023-06-24T09:05:23;5.97;;;2.53;;
77520;SDS011;66633;47.628;19.158;2023-06-24T09:07:48;4.87;;;2.50;;
77520;SDS011;66633;47.628;19.158;2023-06-24T09:10:35;5.05;;;2.20;;
77520;SDS011;66633;47.628;19.158;2023-06-24T09:13:01;5.00;;;2.40;;
77520;SDS011;66633;47.628;19.158;2023-06-24T09:15:36;5.15;;;2.60;;
77520;SDS011;66633;47.628;19.158;2023-06-24T09:18:02;4.95;;;2.30;;
77520;SDS011;66633;47.628;19.158;2023-06-24T09:20:28;5.72;;;2.17;;
77520;SDS011;66633;47.628;19.158;2023-06-24T09:23:01;5.25;;;2.40;;
77520;SDS011;66633;47.628;19.158;2023-06-24T09:25:27;5.88;;;2.67;;
77520;SDS011;66633;47.628;19.158;2023-06-24T09:27:52;4.93;;;2.60;;
77520;SDS011;66633;47.628;19.158;2023-06-24T09:30:20;4.15;;;2.30;;
77520;SDS011;66633;47.628;19.158;2023-06-24T09:32:49;4.45;;;2.40;;
77520;SDS011;66633;47.628;19.158;2023-06-24T09:35:18;4.30;;;2.60;;
77520;SDS011;66633;47.628;19.158;2023-06-24T09:37:57;5.32;;;2.55;;
77520;SDS011;66633;47.628;19.158;2023-06-24T09:40:24;5.03;;;2.72;;
77520;SDS011;66633;47.628;19.158;2023-06-24T09:42:54;5.43;;;2.50;;
77520;SDS011;66633;47.628;19.158;2023-06-24T09:45:26;4.68;;;2.30;;
77520;SDS011;66633;47.628;19.158;2023-06-24T09:47:52;4.63;;;2.72;;
77520;SDS011;66633;47.628;19.158;2023-06-24T09:50:18;4.80;;;3.08;;
77520;SDS011;66633;47.628;19.158;2023-06-24T09:52:44;4.30;;;2.67;;
77520;SDS011;66633;47.628;19.158;2023-06-24T09:55:09;5.38;;;2.60;;
77520;SDS011;66633;47.628;19.158;2023-06-24T09:57:35;4.97;;;2.88;;
77520;SDS011;66633;47.628;19.158;2023-06-24T10:00:00;5.40;;;2.75;;
77520;SDS011;66633;47.628;19.158;2023-06-24T10:02:28;4.97;;;2.60;;
77520;SDS011;66633;47.628;19.158;2023-06-24T10:04:54;4.60;;;2.60;;
77520;SDS011;66633;47.628;19.158;2023-06-24T10:07:20;5.00;;;3.00;;
77520;SDS011;66633;47.628;19.158;2023-06-24T10:09:45;5.70;;;2.92;;
77520;SDS011;66633;47.628;19.158;2023-06-24T10:12:10;5.78;;;2.83;;
77520;SDS011;66633;47.628;19.158;2023-06-24T10:14:36;4.95;;;2.78;;
77520;SDS011;66633;47.628;19.158;2023-06-24T10:17:04;4.60;;;2.63;;
77520;SDS011;66633;47.628;19.158;2023-06-24T10:19:30;5.65;;;3.13;;
77520;SDS011;66633;47.628;19.158;2023-06-24T10:21:58;4.90;;;2.80;;
77520;SDS011;66633;47.628;19.158;2023-06-24T10:24:29;5.10;;;2.65;;
77520;SDS011;66633;47.628;19.158;2023-06-24T10:26:55;5.40;;;2.97;;
77520;SDS011;66633;47.628;19.158;2023-06-24T10:29:30;5.20;;;2.80;;
77520;SDS011;66633;47.628;19.158;2023-06-24T10:31:55;4.85;;;2.97;;
77520;SDS011;66633;47.628;19.158;2023-06-24T10:34:31;4.38;;;2.47;;
77520;SDS011;66633;47.628;19.158;2023-06-24T10:39:35;6.07;;;3.10;;
77520;SDS011;66633;47.628;19.158;2023-06-24T10:42:24;5.20;;;3.20;;
77520;SDS011;66633;47.628;19.158;2023-06-24T10:44:48;4.93;;;2.65;;
77520;SDS011;66633;47.628;19.158;2023-06-24T10:47:14;5.82;;;2.70;;
77520;SDS011;66633;47.628;19.158;2023-06-24T10:49:39;4.80;;;3.13;;
77520;SDS011;66633;47.628;19.158;2023-06-24T10:52:06;5.07;;;3.08;;
77520;SDS011;66633;47.628;19.158;2023-06-24T10:54:32;7.97;;;3.63;;
77520;SDS011;66633;47.628;19.158;2023-06-24T10:56:57;6.20;;;3.35;;
77520;SDS011;66633;47.628;19.158;2023-06-24T10:59:23;6.03;;;3.60;;
77520;SDS011;66633;47.628;19.158;2023-06-24T11:01:52;5.47;;;3.30;;
77520;SDS011;66633;47.628;19.158;2023-06-24T11:04:17;5.57;;;3.30;;
77520;SDS011;66633;47.628;19.158;2023-06-24T11:06:43;6.23;;;3.70;;
77520;SDS011;66633;47.628;19.158;2023-06-24T11:09:08;5.33;;;3.33;;
77520;SDS011;66633;47.628;19.158;2023-06-24T11:11:33;5.13;;;2.97;;
77520;SDS011;66633;47.628;19.158;2023-06-24T11:13:58;8.73;;;3.93;;
77520;SDS011;66633;47.628;19.158;2023-06-24T11:16:24;4.93;;;3.30;;
77520;SDS011;66633;47.628;19.158;2023-06-24T11:18:49;5.20;;;3.30;;
77520;SDS011;66633;47.628;19.158;2023-06-24T11:21:14;5.77;;;3.23;;
77520;SDS011;66633;47.628;19.158;2023-06-24T11:23:39;5.85;;;3.35;;
77520;SDS011;66633;47.628;19.158;2023-06-24T11:26:05;7.03;;;3.33;;
77520;SDS011;66633;47.628;19.158;2023-06-24T11:28:31;5.43;;;3.40;;
77520;SDS011;66633;47.628;19.158;2023-06-24T11:30:56;5.53;;;3.03;;
77520;SDS011;66633;47.628;19.158;2023-06-24T11:33:28;6.57;;;3.33;;
77520;SDS011;66633;47.628;19.158;2023-06-24T11:35:53;6.53;;;3.60;;
77520;SDS011;66633;47.628;19.158;2023-06-24T11:38:18;4.63;;;2.80;;
77520;SDS011;66633;47.628;19.158;2023-06-24T11:40:43;5.00;;;3.10;;
77520;SDS011;66633;47.628;19.158;2023-06-24T11:43:13;7.00;;;2.90;;
77520;SDS011;66633;47.628;19.158;2023-06-24T11:45:38;5.35;;;3.10;;
77520;SDS011;66633;47.628;19.158;2023-06-24T11:48:04;5.30;;;3.20;;
77520;SDS011;66633;47.628;19.158;2023-06-24T11:50:33;5.10;;;2.90;;
77520;SDS011;66633;47.628;19.158;2023-06-24T11:53:00;5.28;;;3.28;;
77520;SDS011;66633;47.628;19.158;2023-06-24T11:55:26;5.87;;;3.10;;
77520;SDS011;66633;47.628;19.158;2023-06-24T12:00:19;5.30;;;3.08;;
77520;SDS011;66633;47.628;19.158;2023-06-24T12:02:44;6.15;;;3.60;;
77520;SDS011;66633;47.628;19.158;2023-06-24T12:05:09;6.80;;;3.03;;
77520;SDS011;66633;47.628;19.158;2023-06-24T12:07:35;6.07;;;3.23;;
77520;SDS011;66633;47.628;19.158;2023-06-24T12:10:00;6.77;;;3.13;;
77520;SDS011;66633;47.628;19.158;2023-06-24T12:12:25;5.10;;;3.88;;
77520;SDS011;66633;47.628;19.158;2023-06-24T12:14:51;4.93;;;2.87;;
77520;SDS011;66633;47.628;19.158;2023-06-24T12:17:16;5.47;;;2.97;;
77520;SDS011;66633;47.628;19.158;2023-06-24T12:19:41;5.10;;;3.03;;
77520;SDS011;66633;47.628;19.158;2023-06-24T12:22:07;5.57;;;3.30;;
77520;SDS011;66633;47.628;19.158;2023-06-24T12:24:32;6.80;;;3.25;;
77520;SDS011;66633;47.628;19.158;2023-06-24T12:26:58;5.70;;;3.30;;
77520;SDS011;66633;47.628;19.158;2023-06-24T12:29:23;5.00;;;3.30;;
77520;SDS011;66633;47.628;19.158;2023-06-24T12:31:49;5.00;;;3.22;;
77520;SDS011;66633;47.628;19.158;2023-06-24T12:34:14;5.50;;;3.40;;
77520;SDS011;66633;47.628;19.158;2023-06-24T12:36:39;5.10;;;3.27;;
77520;SDS011;66633;47.628;19.158;2023-06-24T12:39:04;5.53;;;2.60;;
77520;SDS011;66633;47.628;19.158;2023-06-24T12:41:29;4.97;;;3.53;;
77520;SDS011;66633;47.628;19.158;2023-06-24T12:43:55;4.60;;;3.25;;
77520;SDS011;66633;47.628;19.158;2023-06-24T12:46:20;4.60;;;2.80;;
77520;SDS011;66633;47.628;19.158;2023-06-24T12:48:45;5.07;;;3.47;;
77520;SDS011;66633;47.628;19.158;2023-06-24T12:51:10;5.93;;;2.83;;
77520;SDS011;66633;47.628;19.158;2023-06-24T12:53:36;4.35;;;2.85;;
77520;SDS011;66633;47.628;19.158;2023-06-24T12:56:01;5.43;;;3.05;;
77520;SDS011;66633;47.628;19.158;2023-06-24T12:58:27;6.53;;;2.97;;
77520;SDS011;66633;47.628;19.158;2023-06-24T13:00:52;4.67;;;3.00;;
77520;SDS011;66633;47.628;19.158;2023-06-24T13:03:18;6.07;;;4.32;;
77520;SDS011;66633;47.628;19.158;2023-06-24T13:05:43;7.10;;;5.38;;
77520;SDS011;66633;47.628;19.158;2023-06-24T13:08:08;5.32;;;2.72;;
77520;SDS011;66633;47.628;19.158;2023-06-24T13:10:36;4.90;;;2.78;;
77520;SDS011;66633;47.628;19.158;2023-06-24T13:13:01;5.07;;;2.78;;
77520;SDS011;66633;47.628;19.158;2023-06-24T13:15:26;6.37;;;2.83;;
77520;SDS011;66633;47.628;19.158;2023-06-24T13:17:52;4.60;;;3.10;;
77520;SDS011;66633;47.628;19.158;2023-06-24T13:20:17;4.55;;;2.70;;
77520;SDS011;66633;47.628;19.158;2023-06-24T13:22:42;6.15;;;3.38;;
77520;SDS011;66633;47.628;19.158;2023-06-24T13:25:08;4.63;;;2.93;;
77520;SDS011;66633;47.628;19.158;2023-06-24T13:27:33;5.93;;;3.20;;
77520;SDS011;66633;47.628;19.158;2023-06-24T13:29:58;5.20;;;3.05;;
77520;SDS011;66633;47.628;19.158;2023-06-24T13:32:24;5.43;;;3.30;;
77520;SDS011;66633;47.628;19.158;2023-06-24T13:34:49;6.35;;;3.10;;
77520;SDS011;66633;47.628;19.158;2023-06-24T13:37:14;4.70;;;2.70;;
77520;SDS011;66633;47.628;19.158;2023-06-24T13:39:39;5.67;;;3.13;;
77520;SDS011;66633;47.628;19.158;2023-06-24T13:42:05;6.97;;;3.88;;
77520;SDS011;66633;47.628;19.158;2023-06-24T13:44:30;6.25;;;3.50;;
77520;SDS011;66633;47.628;19.158;2023-06-24T13:46:55;6.77;;;3.90;;
77520;SDS011;66633;47.628;19.158;2023-06-24T13:49:21;6.07;;;3.40;;
77520;SDS011;66633;47.628;19.158;2023-06-24T13:51:46;6.10;;;3.75;;
77520;SDS011;66633;47.628;19.158;2023-06-24T13:54:12;4.93;;;3.47;;
77520;SDS011;66633;47.628;19.158;2023-06-24T13:56:37;6.43;;;3.67;;
77520;SDS011;66633;47.628;19.158;2023-06-24T13:59:02;6.27;;;4.03;;
77520;SDS011;66633;47.628;19.158;2023-06-24T14:01:28;5.05;;;3.30;;
77520;SDS011;66633;47.628;19.158;2023-06-24T14:06:33;6.65;;;4.15;;
77520;SDS011;66633;47.628;19.158;2023-06-24T14:08:59;5.87;;;4.00;;
77520;SDS011;66633;47.628;19.158;2023-06-24T14:16:25;5.95;;;4.38;;
77520;SDS011;66633;47.628;19.158;2023-06-24T14:18:50;5.60;;;4.17;;
77520;SDS011;66633;47.628;19.158;2023-06-24T14:21:15;6.03;;;4.70;;
77520;SDS011;66633;47.628;19.158;2023-06-24T14:23:41;6.18;;;4.63;;
77520;SDS011;66633;47.628;19.158;2023-06-24T14:26:06;7.50;;;5.28;;
77520;SDS011;66633;47.628;19.158;2023-06-24T14:28:32;5.63;;;4.67;;
77520;SDS011;66633;47.628;19.158;2023-06-24T14:33:32;5.72;;;4.72;;
77520;SDS011;66633;47.628;19.158;2023-06-24T14:35:57;6.70;;;4.70;;
77520;SDS011;66633;47.628;19.158;2023-06-24T14:38:23;6.80;;;5.45;;
77520;SDS011;66633;47.628;19.158;2023-06-24T14:40:48;6.93;;;5.03;;
77520;SDS011;66633;47.628;19.158;2023-06-24T14:43:13;6.25;;;4.45;;
77520;SDS011;66633;47.628;19.158;2023-06-24T14:45:38;5.93;;;4.90;;
77520;SDS011;66633;47.628;19.158;2023-06-24T14:48:04;8.53;;;5.30;;
77520;SDS011;66633;47.628;19.158;2023-06-24T14:50:32;9.93;;;6.20;;
77520;SDS011;66633;47.628;19.158;2023-06-24T14:52:57;5.75;;;4.95;;
77520;SDS011;66633;47.628;19.158;2023-06-24T14:55:22;6.83;;;5.33;;
77520;SDS011;66633;47.628;19.158;2023-06-24T14:57:48;7.90;;;4.97;;
77520;SDS011;66633;47.628;19.158;2023-06-24T15:00:13;6.03;;;4.85;;
77520;SDS011;66633;47.628;19.158;2023-06-24T15:02:38;7.43;;;6.10;;
77520;SDS011;66633;47.628;19.158;2023-06-24T15:05:04;7.47;;;5.60;;
77520;SDS011;66633;47.628;19.158;2023-06-24T15:07:29;9.70;;;5.18;;
77520;SDS011;66633;47.628;19.158;2023-06-24T15:09:54;5.85;;;5.25;;
77520;SDS011;66633;47.628;19.158;2023-06-24T15:12:20;6.97;;;5.45;;
77520;SDS011;66633;47.628;19.158;2023-06-24T15:14:45;6.32;;;5.13;;
77520;SDS011;66633;47.628;19.158;2023-06-24T15:17:12;6.90;;;5.05;;
77520;SDS011;66633;47.628;19.158;2023-06-24T15:19:38;6.00;;;4.93;;
77520;SDS011;66633;47.628;19.158;2023-06-24T15:22:03;6.70;;;4.55;;
77520;SDS011;66633;47.628;19.158;2023-06-24T15:24:28;9.27;;;7.70;;
77520;SDS011;66633;47.628;19.158;2023-06-24T15:26:55;6.22;;;5.07;;
77520;SDS011;66633;47.628;19.158;2023-06-24T15:29:21;6.10;;;4.97;;
77520;SDS011;66633;47.628;19.158;2023-06-24T15:31:46;7.27;;;5.83;;
77520;SDS011;66633;47.628;19.158;2023-06-24T15:34:11;6.78;;;5.10;;
77520;SDS011;66633;47.628;19.158;2023-06-24T15:36:37;7.70;;;5.05;;
77520;SDS011;66633;47.628;19.158;2023-06-24T15:39:02;7.03;;;5.90;;
77520;SDS011;66633;47.628;19.158;2023-06-24T15:41:28;7.30;;;5.72;;
77520;SDS011;66633;47.628;19.158;2023-06-24T15:43:53;6.65;;;5.70;;
77520;SDS011;66633;47.628;19.158;2023-06-24T15:46:18;7.63;;;5.63;;
77520;SDS011;66633;47.628;19.158;2023-06-24T15:48:44;7.70;;;6.17;;
77520;SDS011;66633;47.628;19.158;2023-06-24T15:51:09;6.43;;;4.97;;
77520;SDS011;66633;47.628;19.158;2023-06-24T15:53:34;7.20;;;5.53;;
77520;SDS011;66633;47.628;19.158;2023-06-24T15:55:59;7.70;;;5.80;;
77520;SDS011;66633;47.628;19.158;2023-06-24T15:58:25;9.32;;;5.22;;
77520;SDS011;66633;47.628;19.158;2023-06-24T16:00:50;7.83;;;5.77;;
77520;SDS011;66633;47.628;19.158;2023-06-24T16:03:15;8.97;;;6.23;;
77520;SDS011;66633;47.628;19.158;2023-06-24T16:05:40;7.80;;;6.43;;
77520;SDS011;66633;47.628;19.158;2023-06-24T16:08:06;7.80;;;6.18;;
77520;SDS011;66633;47.628;19.158;2023-06-24T16:10:31;8.07;;;6.10;;
77520;SDS011;66633;47.628;19.158;2023-06-24T16:12:56;8.32;;;6.40;;
77520;SDS011;66633;47.628;19.158;2023-06-24T16:15:22;7.25;;;6.10;;
77520;SDS011;66633;47.628;19.158;2023-06-24T16:17:47;8.38;;;6.68;;
77520;SDS011;66633;47.628;19.158;2023-06-24T16:20:13;7.63;;;6.10;;
77520;SDS011;66633;47.628;19.158;2023-06-24T16:22:41;8.23;;;6.95;;
77520;SDS011;66633;47.628;19.158;2023-06-24T16:25:07;10.27;;;7.20;;
77520;SDS011;66633;47.628;19.158;2023-06-24T16:27:32;9.65;;;8.02;;
77520;SDS011;66633;47.628;19.158;2023-06-24T16:29:57;9.13;;;6.50;;
77520;SDS011;66633;47.628;19.158;2023-06-24T16:32:23;9.27;;;7.07;;
77520;SDS011;66633;47.628;19.158;2023-06-24T16:34:48;9.65;;;6.55;;
77520;SDS011;66633;47.628;19.158;2023-06-24T16:37:13;7.60;;;6.47;;